Terminal Aerodrome Forecast
Issued by NWS

Home | Current Version | Previous Version | Text Only | Print | Product List | Glossary On
Versions: 1 2 3 4 5 6 7 8 9 10 11 12 13 14
000
FTUS45 KTFX 071015 AAA
TAFHLN
TAF AMD
KHLN 071015Z 0710/0806 36014KT P6SM SCT070 BKN100
     FM071900 01008KT P6SM SCT080 BKN120
     FM080200 VRB04KT P6SM SCT090 BKN150=

USA.gov is the U.S. government's official web portal to all federal, state and local government web resources and services.